Time;durP1;ratioP1;P1;durP2;ratioP2;P2;SDS_P1;SDS_P2;PMS_P1;PMS_P2;Temp;Humidity;BMP_temperature;BMP_pressure;BME280_temperature;BME280_humidity;BME280_pressure;Samples;Min_cycle;Max_cycle;Signal;HPM_P1;HPM_P2
2023/08/18 00:01:19;;;;;;;14.35;8.02;;;;;;;21.68;70.02;99380.22;6205980;23;20013;-94
2023/08/18 00:03:45;;;;;;;10.18;7.95;;;;;;;21.56;70.29;99372.81;6179971;23;20002;-94
2023/08/18 00:06:11;;;;;;;12.48;7.97;;;;;;;21.59;70.26;99383.06;6202480;23;20010;-93
2023/08/18 00:08:38;;;;;;;14.07;9.18;;;;;;;21.54;70.33;99382.50;6179548;23;20021;-94
2023/08/18 00:11:03;;;;;;;11.57;8.65;;;;;;;21.46;70.60;99377.91;6229839;22;20360;-94
2023/08/18 00:16:51;;;;;;;9.07;7.57;;;;;;;21.43;71.20;99381.34;6127484;23;20348;-94
2023/08/18 00:19:18;;;;;;;9.40;6.97;;;;;;;21.29;71.02;99387.94;6179280;23;19998;-94
2023/08/18 00:21:44;;;;;;;9.07;6.75;;;;;;;21.23;71.19;99385.72;6254081;22;20057;-94
2023/08/18 00:27:34;;;;;;;11.82;6.75;;;;;;;21.06;71.07;99381.25;6128744;23;20021;-95
2023/08/18 00:30:00;;;;;;;10.27;7.20;;;;;;;21.16;71.42;99392.56;6205808;22;20029;-95
2023/08/18 00:32:27;;;;;;;10.05;6.75;;;;;;;21.08;71.27;99384.44;6206760;23;20002;-93
2023/08/18 00:34:53;;;;;;;9.40;6.57;;;;;;;21.07;71.04;99375.44;6248159;23;20020;-94
2023/08/18 00:37:19;;;;;;;13.43;7.07;;;;;;;21.03;71.37;99374.53;6250173;23;20058;-94
2023/08/18 00:39:45;;;;;;;8.57;6.57;;;;;;;21.10;71.32;99379.44;6199680;23;20328;-93
2023/08/18 00:42:11;;;;;;;14.38;6.97;;;;;;;21.07;71.91;99361.75;6226944;23;20000;-93
2023/08/18 00:44:38;;;;;;;8.20;6.43;;;;;;;21.04;71.59;99370.63;6226596;23;20011;-93
2023/08/18 00:47:06;;;;;;;10.90;6.47;;;;;;;21.07;71.19;99375.44;6249658;23;20000;-95
2023/08/18 00:49:32;;;;;;;7.50;6.05;;;;;;;20.94;71.68;99365.59;6227150;23;20025;-92
2023/08/18 00:51:58;;;;;;;12.20;6.03;;;;;;;20.86;71.47;99363.75;6201295;23;20461;-95
2023/08/18 00:54:24;;;;;;;8.60;5.63;;;;;;;20.90;71.79;99378.38;6224088;23;19996;-93
2023/08/18 00:56:50;;;;;;;8.18;5.40;;;;;;;20.88;71.39;99369.69;6200815;23;20030;-94
2023/08/18 00:59:16;;;;;;;8.75;5.90;;;;;;;20.81;71.89;99370.22;6225090;23;19996;-94
2023/08/18 01:01:42;;;;;;;9.57;5.75;;;;;;;20.63;71.34;99355.91;6201057;23;20091;-93
2023/08/18 01:04:09;;;;;;;10.43;5.72;;;;;;;20.66;72.04;99371.66;6250337;23;20057;-94
2023/08/18 01:06:38;;;;;;;7.05;5.30;;;;;;;20.60;71.86;99370.25;6200141;23;20000;-94
2023/08/18 01:09:06;;;;;;;8.85;5.68;;;;;;;20.62;72.28;99370.72;6202021;23;20015;-93
2023/08/18 01:11:55;;;;;;;8.10;5.53;;;;;;;20.54;72.31;99380.59;6252520;22;20440;-93
2023/08/18 01:14:55;;;;;;;11.95;5.70;;;;;;;20.44;72.58;99366.50;6274931;22;20039;-93
2023/08/18 01:17:34;;;;;;;6.28;5.25;;;;;;;20.44;72.99;99382.91;6228724;23;20011;-94
2023/08/18 01:20:00;;;;;;;8.05;5.80;;;;;;;20.34;73.27;99374.00;6246285;23;20016;-94
2023/08/18 01:22:27;;;;;;;8.55;6.40;;;;;;;20.42;73.37;99386.00;6225102;22;20004;-94
2023/08/18 01:25:00;;;;;;;13.80;6.80;;;;;;;20.36;73.41;99374.47;6225575;23;20035;-93
2023/08/18 01:27:29;;;;;;;12.57;7.55;;;;;;;20.23;73.49;99353.63;6224581;23;20008;-92
2023/08/18 01:29:55;;;;;;;12.05;7.45;;;;;;;20.33;73.19;99372.38;6225583;23;20003;-93
2023/08/18 01:32:20;;;;;;;9.80;6.35;;;;;;;20.35;73.24;99372.03;6198911;23;20023;-95
2023/08/18 01:34:47;;;;;;;8.93;6.85;;;;;;;20.32;73.47;99365.31;6189186;23;20031;-93
2023/08/18 01:37:13;;;;;;;9.40;6.72;;;;;;;20.44;73.47;99393.84;6074470;23;20007;-94
2023/08/18 01:39:40;;;;;;;12.18;6.30;;;;;;;20.41;73.28;99383.59;6049038;23;20011;-94
2023/08/18 01:42:07;;;;;;;7.13;5.70;;;;;;;20.55;72.47;99387.66;6073872;23;20019;-94
2023/08/18 01:44:35;;;;;;;9.25;6.20;;;;;;;20.54;71.95;99371.56;6050047;23;20013;-94
2023/08/18 01:47:01;;;;;;;7.47;5.55;;;;;;;20.68;71.05;99379.53;6048757;23;20009;-95
2023/08/18 01:49:26;;;;;;;7.63;4.95;;;;;;;20.76;69.74;99386.88;6072924;23;20014;-93
2023/08/18 01:51:52;;;;;;;10.43;5.28;;;;;;;20.73;69.69;99371.94;6048276;23;20002;-94
2023/08/18 01:54:23;;;;;;;7.50;5.35;;;;;;;20.64;69.42;99354.78;6049745;23;20021;-94
2023/08/18 01:56:55;;;;;;;10.10;5.13;;;;;;;20.64;70.42;99365.72;6075307;23;19979;-94
2023/08/18 01:59:21;;;;;;;8.95;5.53;;;;;;;20.52;71.65;99377.41;6095275;23;20345;-93
2023/08/18 02:01:55;;;;;;;5.32;4.78;;;;;;;20.43;72.10;99376.66;6073305;23;20003;-92
2023/08/18 02:04:20;;;;;;;5.90;5.30;;;;;;;20.30;72.25;99378.53;6098493;22;20002;-95
2023/08/18 02:06:46;;;;;;;6.40;5.50;;;;;;;20.23;72.89;99391.91;6119073;23;20015;-93
2023/08/18 02:09:14;;;;;;;6.80;5.47;;;;;;;20.20;72.63;99389.84;6201984;23;20018;-93
2023/08/18 02:11:40;;;;;;;8.82;5.78;;;;;;;20.12;72.88;99387.97;6227879;23;20011;-94
2023/08/18 02:14:06;;;;;;;14.85;5.57;;;;;;;20.17;72.61;99391.31;6201568;23;20004;-94
2023/08/18 02:16:31;;;;;;;8.23;5.25;;;;;;;20.15;71.66;99382.66;6226788;23;20009;-94
2023/08/18 02:18:58;;;;;;;6.43;4.80;;;;;;;20.23;71.28;99372.78;6226274;23;20031;-94
2023/08/18 02:21:24;;;;;;;6.32;4.75;;;;;;;20.27;70.81;99372.91;6227121;23;20074;-94
2023/08/18 02:23:51;;;;;;;7.47;4.72;;;;;;;20.23;71.02;99371.97;6227093;23;19988;-94
2023/08/18 02:26:17;;;;;;;6.97;4.82;;;;;;;20.22;70.93;99371.19;6225789;23;20000;-95
2023/08/18 02:28:43;;;;;;;8.02;4.72;;;;;;;20.32;70.25;99389.94;6226599;23;20018;-95
2023/08/18 02:31:11;;;;;;;5.85;4.88;;;;;;;20.36;69.78;99384.59;6225878;23;20015;-94
2023/08/18 02:33:36;;;;;;;7.25;4.72;;;;;;;20.29;70.05;99367.91;6251656;23;20004;-94
2023/08/18 02:36:04;;;;;;;10.63;4.97;;;;;;;20.21;70.58;99374.25;6202236;23;20108;-95
2023/08/18 02:38:30;;;;;;;6.35;4.60;;;;;;;20.11;71.49;99376.25;6218734;23;19996;-95
2023/08/18 02:40:55;;;;;;;7.70;5.13;;;;;;;19.99;71.54;99370.69;6226584;23;20023;-93
2023/08/18 02:43:23;;;;;;;6.18;5.30;;;;;;;20.00;72.31;99391.41;6217880;23;20004;-93
2023/08/18 02:45:48;;;;;;;5.90;5.30;;;;;;;19.95;72.58;99386.94;6225798;23;20000;-93
2023/08/18 02:48:16;;;;;;;8.10;5.28;;;;;;;19.81;73.05;99371.94;6217254;23;20074;-92
2023/08/18 02:50:42;;;;;;;8.50;5.45;;;;;;;19.74;73.00;99377.91;6221992;23;20008;-92
2023/08/18 02:53:08;;;;;;;6.50;5.40;;;;;;;19.76;72.95;99381.91;6226130;23;19996;-95
2023/08/18 02:55:36;;;;;;;6.35;5.13;;;;;;;19.74;73.48;99375.19;6252416;23;19996;-93
2023/08/18 02:58:03;;;;;;;8.20;5.72;;;;;;;19.69;73.61;99384.31;6200051;23;19996;-94
2023/08/18 03:00:31;;;;;;;7.95;5.15;;;;;;;19.67;73.28;99380.31;6252395;22;20015;-93
2023/08/18 03:02:58;;;;;;;7.65;5.20;;;;;;;19.58;73.70;99378.44;6278217;22;20007;-93
2023/08/18 03:05:25;;;;;;;9.48;5.70;;;;;;;19.54;74.21;99384.88;6250455;22;20004;-93
2023/08/18 03:07:51;;;;;;;9.52;5.75;;;;;;;19.48;73.83;99380.72;6226763;23;20004;-93
2023/08/18 03:10:17;;;;;;;8.05;5.50;;;;;;;19.62;74.05;99400.44;6277101;22;20004;-94
2023/08/18 03:12:42;;;;;;;8.68;5.78;;;;;;;19.48;74.13;99386.97;6225608;23;19999;-92
2023/08/18 03:15:08;;;;;;;7.68;5.85;;;;;;;19.53;74.43;99403.22;6201223;23;19988;-93
2023/08/18 03:17:34;;;;;;;6.97;5.30;;;;;;;19.48;74.37;99402.56;6199965;23;20000;-94
2023/08/18 03:20:00;;;;;;;6.72;5.90;;;;;;;19.47;74.78;99406.44;6201712;23;20058;-93
2023/08/18 03:22:27;;;;;;;9.88;5.78;;;;;;;19.35;74.80;99407.13;6226784;23;20011;-92
2023/08/18 03:24:53;;;;;;;7.97;5.90;;;;;;;19.15;74.59;99384.03;6225769;22;20011;-94
2023/08/18 03:27:18;;;;;;;9.48;6.05;;;;;;;19.26;74.76;99406.34;6201528;22;20008;-93
2023/08/18 03:29:44;;;;;;;10.30;6.13;;;;;;;19.15;74.78;99389.50;6201158;23;20328;-94
2023/08/18 03:32:09;;;;;;;9.40;6.10;;;;;;;19.20;74.95;99400.28;6202899;23;20007;-93
2023/08/18 03:34:35;;;;;;;7.80;5.97;;;;;;;19.27;74.78;99413.41;6225984;23;20035;-94
2023/08/18 03:37:01;;;;;;;9.60;5.78;;;;;;;19.15;74.92;99387.59;6226959;23;20011;-94
2023/08/18 03:39:28;;;;;;;10.52;6.35;;;;;;;19.24;74.93;99403.16;6224966;23;20382;-91
2023/08/18 03:41:54;;;;;;;8.05;5.97;;;;;;;19.33;74.87;99414.84;6224020;23;20004;-92
2023/08/18 03:44:21;;;;;;;8.65;6.07;;;;;;;19.37;74.74;99426.72;6224470;22;20011;-91
2023/08/18 03:46:48;;;;;;;8.05;5.38;;;;;;;19.29;74.20;99419.34;6200605;23;20016;-91
2023/08/18 03:49:13;;;;;;;8.63;5.53;;;;;;;19.13;74.44;99400.78;6198964;23;20039;-91
2023/08/18 03:51:39;;;;;;;7.30;5.43;;;;;;;19.34;72.80;99419.97;6199580;23;20004;-91
2023/08/18 03:54:04;;;;;;;7.25;4.72;;;;;;;19.42;72.02;99415.59;6224997;23;20008;-92
2023/08/18 03:56:30;;;;;;;7.78;5.20;;;;;;;19.45;71.79;99412.22;6223703;23;20028;-92
2023/08/18 03:58:56;;;;;;;7.70;4.65;;;;;;;19.42;70.70;99403.88;6224499;23;20027;-91
2023/08/18 04:01:22;;;;;;;10.88;6.22;;;;;;;19.61;70.85;99419.88;6224059;23;20095;-89
2023/08/18 04:03:48;;;;;;;6.35;4.78;;;;;;;19.67;70.36;99418.56;6224194;23;20004;-91
2023/08/18 04:06:13;;;;;;;9.52;5.22;;;;;;;19.76;70.95;99430.31;6199442;23;20000;-92
2023/08/18 04:08:41;;;;;;;11.52;5.40;;;;;;;19.60;70.92;99410.88;6198568;23;20004;-92
2023/08/18 04:11:08;;;;;;;7.82;5.07;;;;;;;19.68;70.30;99412.78;6251520;23;20087;-95
2023/08/18 04:13:34;;;;;;;6.68;5.05;;;;;;;19.81;69.67;99415.66;6251358;22;20438;-92
2023/08/18 04:16:00;;;;;;;7.15;5.32;;;;;;;19.82;70.41;99414.50;6199842;23;20011;-92
2023/08/18 04:18:27;;;;;;;11.05;5.80;;;;;;;19.69;71.46;99399.91;6226034;23;20028;-93
2023/08/18 04:20:53;;;;;;;7.72;5.25;;;;;;;19.74;71.69;99418.91;6275554;22;20020;-93
2023/08/18 04:23:19;;;;;;;8.15;5.22;;;;;;;19.81;71.25;99413.72;6224374;23;20072;-91
2023/08/18 04:25:45;;;;;;;11.40;6.10;;;;;;;19.85;71.42;99419.31;6224992;23;20012;-91
2023/08/18 04:28:12;;;;;;;9.32;5.30;;;;;;;19.75;70.95;99406.81;6198510;23;20070;-93
2023/08/18 04:30:40;;;;;;;7.60;5.57;;;;;;;19.80;71.22;99406.66;6251470;23;20004;-90
2023/08/18 04:33:06;;;;;;;8.57;5.43;;;;;;;19.78;71.43;99425.31;6275205;22;20056;-91
2023/08/18 04:35:32;;;;;;;19.90;5.57;;;;;;;19.76;70.97;99414.72;6223035;22;20020;-93
2023/08/18 04:37:57;;;;;;;8.48;5.07;;;;;;;19.66;71.40;99419.72;6224610;23;20439;-92
2023/08/18 04:40:23;;;;;;;10.00;6.10;;;;;;;19.64;71.97;99438.34;6222768;23;20067;-93
2023/08/18 04:42:49;;;;;;;10.00;5.30;;;;;;;19.61;72.18;99433.53;6224241;23;20011;-93
2023/08/18 04:45:16;;;;;;;7.47;5.45;;;;;;;19.54;71.52;99413.00;6224296;23;20004;-92
2023/08/18 04:47:42;;;;;;;8.80;6.03;;;;;;;19.58;71.44;99424.88;6250229;22;20324;-91
2023/08/18 04:50:08;;;;;;;8.18;5.60;;;;;;;19.70;71.67;99413.28;6201060;23;20000;-93
2023/08/18 04:52:40;;;;;;;12.70;6.55;;;;;;;19.88;71.87;99427.69;6223556;23;20000;-92
2023/08/18 04:55:15;;;;;;;9.00;6.20;;;;;;;19.90;71.60;99414.47;6202140;23;20000;-92
2023/08/18 04:57:41;;;;;;;13.73;5.80;;;;;;;19.97;70.76;99436.63;6198298;23;20007;-92
2023/08/18 05:00:12;;;;;;;11.55;6.88;;;;;;;20.02;70.62;99419.22;6226969;23;20015;-93
2023/08/18 05:02:37;;;;;;;13.02;5.45;;;;;;;20.04;70.16;99408.75;6203345;22;20304;-91
2023/08/18 05:05:07;;;;;;;11.23;6.75;;;;;;;20.11;69.90;99414.53;6223599;23;20007;-94
2023/08/18 05:07:34;;;;;;;18.08;6.57;;;;;;;20.19;68.77;99397.25;6201511;23;20008;-90
2023/08/18 05:10:04;;;;;;;10.30;6.72;;;;;;;20.39;68.79;99403.84;6250065;23;20016;-92
2023/08/18 05:12:34;;;;;;;9.95;5.57;;;;;;;20.57;68.00;99414.69;6198999;23;20027;-90
2023/08/18 05:15:03;;;;;;;14.68;7.80;;;;;;;20.56;67.00;99407.59;6226667;23;20534;-89
2023/08/18 05:17:29;;;;;;;14.55;5.60;;;;;;;20.65;66.33;99411.09;6224069;23;19992;-90
2023/08/18 05:19:55;;;;;;;10.35;4.93;;;;;;;20.51;66.29;99402.34;6199939;23;20007;-91
2023/08/18 05:22:22;;;;;;;6.70;5.28;;;;;;;20.51;66.60;99399.59;6224716;23;20039;-89
2023/08/18 05:24:56;;;;;;;11.27;6.18;;;;;;;20.75;66.50;99423.56;6198981;23;20087;-87
2023/08/18 05:27:26;;;;;;;7.45;5.28;;;;;;;20.83;66.52;99430.09;6223522;23;20340;-89
2023/08/18 05:30:08;;;;;;;;;;;;;;;;;;;;;
2023/08/18 05:33:22;;;;;;;9.50;5.13;;;;;;;21.10;63.90;99436.94;6228243;23;20031;-89
2023/08/18 05:35:51;;;;;;;8.20;5.30;;;;;;;21.20;63.98;99433.78;6164376;22;20041;-88
2023/08/18 05:38:16;;;;;;;9.07;4.80;;;;;;;21.19;63.61;99424.75;6206965;23;20421;-93
2023/08/18 05:41:19;;;;;;;7.35;4.50;;;;;;;21.34;63.58;99423.31;6183246;23;20013;-90
2023/08/18 05:43:50;;;;;;;10.48;5.70;;;;;;;21.43;63.22;99414.22;6084172;23;20488;-93
2023/08/18 05:46:30;;;;;;;15.70;9.97;;;;;;;21.59;62.13;99421.44;6051289;23;20084;-90
2023/08/18 05:49:02;;;;;;;31.87;14.90;;;;;;;21.70;62.20;99415.50;6051008;23;20052;-90
2023/08/18 05:51:56;;;;;;;16.55;9.98;;;;;;;21.84;61.10;99415.97;6075953;23;20010;-88
2023/08/18 05:54:28;;;;;;;15.68;8.55;;;;;;;21.91;61.36;99416.19;6138665;23;20109;-89
2023/08/18 05:56:55;;;;;;;12.38;5.82;;;;;;;22.11;60.95;99419.94;6017037;23;20004;-91
2023/08/18 05:59:21;;;;;;;9.45;4.60;;;;;;;22.23;60.00;99421.91;6014996;23;20038;-89
2023/08/18 06:01:50;;;;;;;12.48;5.10;;;;;;;22.36;60.73;99420.72;6038670;23;20031;-87
2023/08/18 06:04:17;;;;;;;15.65;5.00;;;;;;;22.51;60.07;99416.47;6036877;23;20389;-87
2023/08/18 06:06:43;;;;;;;12.20;5.57;;;;;;;22.59;59.38;99412.00;6036807;23;20007;-87
2023/08/18 06:09:09;;;;;;;8.13;5.03;;;;;;;22.68;58.04;99407.16;6013816;23;20118;-87
2023/08/18 06:11:34;;;;;;;8.57;4.85;;;;;;;22.87;58.25;99422.16;6037380;23;20102;-88
2023/08/18 06:14:00;;;;;;;21.73;9.98;;;;;;;23.05;58.17;99422.69;6016655;23;20012;-90
2023/08/18 06:16:45;;;;;;;7.38;5.25;;;;;;;;;;6015282;23;20011;-88
2023/08/18 06:19:34;;;;;;;16.50;4.60;;;;;;;23.30;57.57;99434.34;6011567;23;20011;-88
2023/08/18 06:22:00;;;;;;;6.90;5.15;;;;;;;23.25;57.42;99418.94;6016324;23;20007;-90
2023/08/18 06:27:17;;;;;;;7.90;4.40;;;;;;;23.63;56.30;99455.22;6055256;23;20042;-87
2023/08/18 06:29:45;;;;;;;7.03;4.28;;;;;;;23.64;56.19;99426.56;6069671;23;20081;-87
2023/08/18 06:32:11;;;;;;;8.98;4.43;;;;;;;23.89;55.66;99440.97;6046101;23;20009;-87
2023/08/18 06:34:36;;;;;;;5.07;4.20;;;;;;;23.89;55.48;99436.28;6204259;23;20379;-86
2023/08/18 06:37:02;;;;;;;9.55;4.47;;;;;;;23.95;55.67;99443.09;6224684;23;20416;-89
2023/08/18 06:39:28;;;;;;;10.13;4.82;;;;;;;24.03;55.81;99443.25;6200719;23;20028;-88
2023/08/18 06:41:56;;;;;;;9.60;5.10;;;;;;;24.15;55.27;99445.91;6225683;23;20004;-88
2023/08/18 06:44:22;;;;;;;10.07;4.90;;;;;;;24.34;55.23;99445.13;6201011;23;20000;-88
2023/08/18 06:47:02;;;;;;;9.48;4.40;;;;;;;24.41;54.76;99442.56;6203410;23;20007;-95
2023/08/18 06:49:28;;;;;;;9.18;4.45;;;;;;;24.43;54.75;99426.47;6211162;23;20000;-94
2023/08/18 06:51:54;;;;;;;13.80;4.80;;;;;;;24.52;54.57;99440.06;6207463;23;20011;-94
2023/08/18 06:54:22;;;;;;;9.57;6.82;;;;;;;24.66;54.25;99442.34;6208110;23;19996;-94
2023/08/18 06:56:57;;;;;;;17.55;6.65;;;;;;;24.92;54.02;99455.44;6208863;23;20015;-96
2023/08/18 06:59:26;;;;;;;18.67;6.78;;;;;;;24.99;53.93;99431.59;6205935;23;20019;-92
2023/08/18 07:08:43;;;;;;;16.85;7.88;;;;;;;25.58;52.57;99440.53;6263910;23;20059;-96
2023/08/18 07:11:11;;;;;;;10.75;5.03;;;;;;;25.77;51.74;99461.78;6234939;22;20042;-95
2023/08/18 07:13:40;;;;;;;11.82;5.25;;;;;;;25.75;52.17;99443.97;6239005;23;20116;-96
2023/08/18 07:18:41;;;;;;;9.75;5.93;;;;;;;26.00;50.01;99461.78;6359043;22;20019;-94
2023/08/18 07:26:55;;;;;;;11.82;5.20;;;;;;;26.39;51.05;99467.06;6265052;22;20026;-95
2023/08/18 07:40:42;;;;;;;8.15;5.10;;;;;;;26.81;49.06;99468.03;6301049;22;20022;-96
2023/08/18 07:46:05;;;;;;;19.85;5.47;;;;;;;27.00;48.72;99461.56;6198789;22;20036;-95
2023/08/18 07:51:25;;;;;;;11.30;6.20;;;;;;;27.00;48.08;99447.75;6319560;22;20038;-95
2023/08/18 07:54:17;;;;;;;6.95;5.28;;;;;;;27.24;47.85;99463.03;6310749;22;20010;-96
2023/08/18 07:56:43;;;;;;;10.30;5.68;;;;;;;27.23;48.35;99452.34;6356251;22;20032;-95
2023/08/18 08:01:51;;;;;;;8.27;5.22;;;;;;;27.35;47.13;99457.59;6313819;22;20019;-91
2023/08/18 08:04:16;;;;;;;8.00;4.53;;;;;;;27.56;46.53;99471.66;6262963;22;20108;-89
2023/08/18 08:07:06;;;;;;;6.60;4.80;;;;;;;27.69;45.92;99463.09;6284768;22;19995;-88
2023/08/18 08:09:32;;;;;;;13.90;5.50;;;;;;;27.67;46.85;99449.63;6288058;22;20005;-89
2023/08/18 08:12:40;;;;;;;7.50;4.75;;;;;;;27.70;45.73;99440.53;6289013;22;20029;-93
2023/08/18 08:22:29;;;;;;;17.58;5.13;;;;;;;28.01;46.26;99428.16;6338872;22;20017;-94
2023/08/18 08:25:01;;;;;;;13.70;6.65;;;;;;;28.17;45.67;99452.78;6328803;22;19991;-96
2023/08/18 08:30:33;;;;;;;10.75;7.93;;;;;;;28.51;44.35;99454.59;6260619;23;19903;-94
2023/08/18 08:32:59;;;;;;;7.50;5.00;;;;;;;28.65;43.93;99460.22;6332848;22;20006;-95
2023/08/18 08:35:45;;;;;;;11.98;5.07;;;;;;;28.73;44.55;99439.66;6330540;22;19995;-96
2023/08/18 08:38:20;;;;;;;6.57;4.68;;;;;;;28.91;44.37;99434.19;6306403;22;19986;-96
2023/08/18 08:44:12;;;;;;;6.97;4.40;;;;;;;29.18;41.90;99418.06;6380862;22;20052;-93
2023/08/18 08:47:20;;;;;;;;;;;;;;;;;;;;;
2023/08/18 08:49:43;;;;;;;6.43;4.07;;;;;;;29.36;40.86;99415.28;6324243;22;20440;-93
2023/08/18 08:52:16;;;;;;;18.17;4.95;;;;;;;29.37;42.49;99430.75;6359501;22;20002;-93
2023/08/18 08:54:58;;;;;;;7.43;4.50;;;;;;;29.41;41.75;99450.97;6328509;22;20014;-93
2023/08/18 08:57:37;;;;;;;;;;;;;;;;;;;;;
2023/08/18 09:00:24;;;;;;;10.15;6.07;;;;;;;29.43;42.18;99481.09;6352603;22;20017;-92
2023/08/18 09:03:07;;;;;;;6.50;4.53;;;;;;;29.57;42.79;99469.22;6334025;22;20017;-94
2023/08/18 09:05:55;;;;;;;9.88;4.70;;;;;;;29.81;43.79;99459.34;6333314;22;19994;-96
2023/08/18 09:08:56;;;;;;;11.38;4.75;;;;;;;30.11;44.00;99480.34;6312348;22;19997;-95
2023/08/18 09:15:02;;;;;;;8.35;4.35;;;;;;;29.65;41.50;99445.81;6293784;22;20014;-94
2023/08/18 09:17:29;;;;;;;21.83;9.10;;;;;;;29.47;42.73;99454.16;6264370;22;20026;-96
2023/08/18 09:20:45;;;;;;;7.78;4.75;;;;;;;29.46;42.52;99471.97;6242609;22;20074;-96
2023/08/18 09:26:30;;;;;;;11.32;4.70;;;;;;;29.32;43.07;99445.00;6304026;22;20015;-96
2023/08/18 09:29:03;;;;;;;9.38;5.32;;;;;;;29.32;43.71;99447.78;6284621;22;20018;-96
2023/08/18 09:31:37;;;;;;;8.73;5.32;;;;;;;29.10;43.76;99424.78;6275452;22;20072;-90
2023/08/18 09:34:26;;;;;;;10.38;4.90;;;;;;;29.05;44.71;99414.03;6269986;22;20007;-90
2023/08/18 09:36:54;;;;;;;7.00;4.40;;;;;;;29.07;44.85;99419.97;6288049;22;20353;-88
2023/08/18 09:39:25;;;;;;;18.05;5.30;;;;;;;28.92;45.67;99399.72;6261716;22;20006;-88
2023/08/18 09:41:56;;;;;;;6.33;4.53;;;;;;;28.90;45.21;99401.31;6265063;22;20064;-89
2023/08/18 09:44:28;;;;;;;11.73;5.45;;;;;;;28.74;47.81;99405.25;6288345;22;19999;-90
2023/08/18 09:47:00;;;;;;;9.00;6.72;;;;;;;28.85;49.22;99418.34;6291304;22;20003;-91
2023/08/18 09:49:47;;;;;;;9.35;5.03;;;;;;;28.53;46.73;99383.75;6264460;22;19999;-91
2023/08/18 09:52:15;;;;;;;6.68;4.05;;;;;;;28.30;46.76;99364.66;6260762;22;20002;-91
2023/08/18 09:54:46;;;;;;;7.13;4.00;;;;;;;28.15;45.59;99365.78;6259956;22;20049;-91
2023/08/18 09:57:21;;;;;;;5.18;3.53;;;;;;;28.18;46.24;99381.59;6285064;22;20367;-89
2023/08/18 09:59:55;;;;;;;5.68;3.70;;;;;;;27.90;46.38;99360.88;6259760;22;19999;-89
2023/08/18 10:02:33;;;;;;;108.88;12.40;;;;;;;28.00;47.88;99401.66;6259534;22;20072;-89
2023/08/18 10:04:59;;;;;;;11.50;4.90;;;;;;;28.19;47.92;99419.19;6257868;22;20110;-87
2023/08/18 10:07:26;;;;;;;6.80;4.38;;;;;;;28.20;47.96;99418.81;6257562;22;20008;-87
2023/08/18 10:09:51;;;;;;;7.72;4.40;;;;;;;28.28;47.87;99436.25;6256844;22;20010;-89
2023/08/18 10:12:26;;;;;;;14.30;4.72;;;;;;;28.34;48.25;99445.78;6257904;22;20003;-96
2023/08/18 10:14:54;;;;;;;10.93;4.60;;;;;;;28.29;47.81;99451.69;6214609;23;20008;-94
2023/08/18 10:17:23;;;;;;;7.07;3.97;;;;;;;28.15;45.45;99444.06;6183420;23;20000;-94
2023/08/18 10:20:00;;;;;;;6.55;3.75;;;;;;;28.09;45.15;99455.91;6208468;23;20139;-96
2023/08/18 10:22:34;;;;;;;5.07;3.50;;;;;;;28.34;45.55;99462.38;6188917;23;20044;-96
2023/08/18 10:27:35;;;;;;;15.85;6.00;;;;;;;28.37;44.65;99438.69;6168358;22;20026;-94
2023/08/18 10:30:02;;;;;;;14.25;5.20;;;;;;;28.38;47.48;99452.13;6141094;23;20029;-96
2023/08/18 10:32:44;;;;;;;25.65;12.43;;;;;;;28.41;48.85;99443.06;6126500;22;20017;-96
2023/08/18 10:35:28;;;;;;;;;;;;;;;28.59;49.41;99465.31;6096078;23;20435;-95
2023/08/18 10:38:01;;;;;;;7.28;4.20;;;;;;;28.54;48.65;99464.91;6114201;23;19936;-96
2023/08/18 10:40:37;;;;;;;9.50;4.68;;;;;;;28.54;48.31;99449.09;6092253;23;20012;-95
2023/08/18 10:43:05;;;;;;;7.97;5.10;;;;;;;28.60;48.42;99430.91;6095571;23;20012;-95
2023/08/18 10:45:31;;;;;;;8.40;4.88;;;;;;;28.53;49.06;99422.56;6090618;23;20023;-91
2023/08/18 10:48:01;;;;;;;9.18;5.18;;;;;;;28.56;47.79;99415.47;6117708;23;19994;-94
2023/08/18 10:53:04;;;;;;;13.07;5.72;;;;;;;28.35;47.12;99441.84;6201642;22;20027;-96
2023/08/18 10:55:30;;;;;;;52.47;41.53;;;;;;;28.40;46.99;99437.91;6213009;22;20048;-93
2023/08/18 10:57:56;;;;;;;10.40;5.38;;;;;;;28.13;52.89;99443.66;6084370;23;20006;-93
2023/08/18 11:00:30;;;;;;;14.32;5.32;;;;;;;28.21;52.66;99455.59;6082106;23;20460;-95
2023/08/18 11:02:57;;;;;;;25.52;6.15;;;;;;;28.21;53.21;99433.44;6084999;23;20006;-96
2023/08/18 11:05:26;;;;;;;13.75;5.10;;;;;;;28.05;52.04;99380.34;6089472;23;20040;-95
2023/08/18 11:07:58;;;;;;;8.98;5.85;;;;;;;27.95;51.34;99359.72;6065813;23;20010;-96
2023/08/18 11:10:33;;;;;;;14.75;6.80;;;;;;;27.92;52.22;99347.44;6056450;23;20076;-87
2023/08/18 11:12:59;;;;;;;9.85;6.38;;;;;;;27.99;51.95;99341.97;6075659;23;20006;-89
2023/08/18 11:15:28;;;;;;;12.73;6.30;;;;;;;27.79;51.68;99299.91;6053084;23;20377;-90
2023/08/18 11:18:21;;;;;;;9.70;4.57;;;;;;;27.69;50.60;99284.03;6054062;23;20373;-90
2023/08/18 11:20:51;;;;;;;4.68;4.00;;;;;;;27.37;50.01;99281.88;6099749;23;20113;-89
2023/08/18 11:23:16;;;;;;;6.15;4.22;;;;;;;27.35;50.63;99324.88;6051574;23;20012;-91
2023/08/18 11:25:42;;;;;;;6.43;3.78;;;;;;;27.57;50.19;99387.50;6087976;23;20033;-90
2023/08/18 11:28:35;;;;;;;6.50;4.30;;;;;;;27.84;49.31;99437.09;6134893;23;20009;-90
2023/08/18 11:31:05;;;;;;;6.97;4.63;;;;;;;27.95;49.42;99440.78;6158580;23;20016;-92
2023/08/18 11:33:41;;;;;;;13.38;5.03;;;;;;;28.19;47.80;99383.19;6138428;23;20019;-92
2023/08/18 11:36:10;;;;;;;10.15;5.40;;;;;;;28.32;48.10;99406.59;6134428;23;20072;-90
2023/08/18 11:38:35;;;;;;;6.28;4.47;;;;;;;28.66;46.36;99403.63;6132843;23;19998;-89
2023/08/18 11:41:27;;;;;;;8.82;5.05;;;;;;;28.91;47.23;99412.03;6134180;22;20439;-90
2023/08/18 11:43:55;;;;;;;6.75;4.70;;;;;;;28.96;44.84;99395.00;6175208;22;20054;-89
2023/08/18 11:46:26;;;;;;;8.05;4.60;;;;;;;28.89;45.61;99385.84;6142650;23;20005;-90
2023/08/18 11:48:52;;;;;;;6.03;4.67;;;;;;;29.40;44.93;99391.13;6163745;22;20021;-90
2023/08/18 11:51:18;;;;;;;4.90;4.10;;;;;;;29.66;42.68;99388.38;6139036;23;20322;-90
2023/08/18 11:53:44;;;;;;;9.35;4.28;;;;;;;29.88;42.46;99378.81;6138996;22;20005;-90
2023/08/18 11:56:13;;;;;;;11.73;7.65;;;;;;;30.05;41.89;99382.78;6139658;23;20013;-90
2023/08/18 11:58:40;;;;;;;8.40;4.60;;;;;;;30.29;41.59;99385.88;6139509;23;19997;-91
2023/08/18 12:01:06;;;;;;;5.55;4.00;;;;;;;30.41;40.48;99393.81;6137014;23;20022;-89
2023/08/18 12:03:56;;;;;;;6.22;3.70;;;;;;;30.56;40.13;99411.22;6134951;23;20005;-89
2023/08/18 12:06:24;;;;;;;5.75;3.80;;;;;;;30.56;39.93;99383.44;6202422;22;20065;-88
2023/08/18 12:08:49;;;;;;;8.27;4.07;;;;;;;30.74;40.34;99389.69;6134053;23;20009;-89
2023/08/18 12:11:34;;;;;;;;;;;;;;;;;;;;;
2023/08/18 12:14:05;;;;;;;7.20;4.00;;;;;;;30.86;39.36;99379.28;6160801;23;20100;-88
2023/08/18 12:16:34;;;;;;;6.93;4.20;;;;;;;30.93;39.22;99393.97;6141616;23;19996;-96
2023/08/18 12:19:07;;;;;;;8.63;3.72;;;;;;;30.80;38.19;99379.72;6145649;23;20027;-96
2023/08/18 12:21:41;;;;;;;4.38;3.63;;;;;;;30.94;38.97;99387.25;6168763;23;20001;-96
2023/08/18 12:24:09;;;;;;;9.10;4.03;;;;;;;31.00;38.82;99371.72;6145742;23;20004;-96
2023/08/18 12:26:38;;;;;;;5.25;3.50;;;;;;;31.06;38.66;99360.13;6145808;23;20008;-96
2023/08/18 12:29:44;;;;;;;5.05;3.63;;;;;;;31.04;38.12;99366.09;6155397;22;20020;-96
2023/08/18 12:32:47;;;;;;;9.68;3.55;;;;;;;31.27;38.65;99387.78;6198265;23;20031;-96
2023/08/18 12:35:22;;;;;;;7.03;4.03;;;;;;;31.23;37.58;99359.22;6248959;22;20014;-96
2023/08/18 12:37:56;;;;;;;9.45;4.00;;;;;;;31.34;37.77;99362.72;6157833;22;20013;-96
2023/08/18 12:40:31;;;;;;;8.00;4.03;;;;;;;31.38;37.64;99368.25;6126815;23;20024;-96
2023/08/18 12:43:15;;;;;;;;;;;;;;;;;;;;;
2023/08/18 12:45:51;;;;;;;5.15;3.70;;;;;;;31.41;36.97;99345.16;6152325;22;20112;-96
2023/08/18 12:48:17;;;;;;;7.80;4.05;;;;;;;31.50;36.16;99361.41;6145820;23;20069;-91
2023/08/18 12:51:02;;;;;;;7.43;4.97;;;;;;;31.51;36.56;99347.09;6116347;23;20016;-94
2023/08/18 12:53:27;;;;;;;13.90;4.15;;;;;;;31.55;36.44;99339.50;6327505;22;20029;-93
2023/08/18 12:56:38;;;;;;;9.35;4.53;;;;;;;31.80;37.22;99358.75;6307100;22;20010;-95
2023/08/18 13:06:07;;;;;;;6.10;4.03;;;;;;;31.88;36.31;99341.97;6266254;22;20038;-95
2023/08/18 13:09:10;;;;;;;8.52;4.35;;;;;;;31.92;35.97;99328.81;6271552;22;20007;-96
2023/08/18 13:11:58;;;;;;;8.32;3.60;;;;;;;31.96;35.14;99341.47;6264793;22;20007;-87